createdAt,value
2022-12-22T00:02:39.559Z,7.60
2022-12-22T00:05:59.782Z,7.10
2022-12-22T00:09:20.280Z,6.50
2022-12-22T00:12:40.746Z,7.63
2022-12-22T00:16:01.148Z,6.55
2022-12-22T00:19:21.519Z,6.68
2022-12-22T00:22:43.831Z,6.70
2022-12-22T00:26:04.230Z,6.22
2022-12-22T00:29:24.536Z,6.53
2022-12-22T00:32:50.659Z,6.40
2022-12-22T00:36:11.143Z,5.93
2022-12-22T00:39:32.000Z,5.18
2022-12-22T00:46:12.759Z,5.60
2022-12-22T00:49:33.558Z,5.32
2022-12-22T00:52:54.401Z,4.65
2022-12-22T00:56:14.792Z,5.20
2022-12-22T00:59:35.097Z,4.88
2022-12-22T01:02:55.720Z,5.15
2022-12-22T01:09:38.529Z,7.80
2022-12-22T01:16:19.531Z,7.28
2022-12-22T01:19:39.842Z,6.75
2022-12-22T01:23:00.795Z,6.70
2022-12-22T01:26:21.275Z,6.88
2022-12-22T01:29:41.627Z,6.65
2022-12-22T01:33:02.049Z,6.97
2022-12-22T01:36:22.543Z,7.90
2022-12-22T01:39:42.988Z,7.18
2022-12-22T01:43:03.564Z,7.53
2022-12-22T01:46:41.973Z,8.18
2022-12-22T01:50:03.089Z,7.85
2022-12-22T01:53:27.120Z,7.95
2022-12-22T01:56:47.559Z,7.47
2022-12-22T02:00:07.827Z,7.00
2022-12-22T02:03:39.066Z,5.97
2022-12-22T02:07:01.211Z,7.05
2022-12-22T02:10:39.315Z,6.20
2022-12-22T02:14:32.762Z,5.85
2022-12-22T02:18:26.097Z,5.65
2022-12-22T02:21:51.648Z,6.00
2022-12-22T02:25:21.539Z,5.47
2022-12-22T02:28:42.913Z,4.95
2022-12-22T02:32:03.294Z,4.38
2022-12-22T02:35:32.304Z,4.13
2022-12-22T02:38:58.827Z,4.57
2022-12-22T02:42:35.126Z,4.72
2022-12-22T02:46:27.706Z,5.18
2022-12-22T02:50:00.239Z,5.03
2022-12-22T02:53:21.940Z,4.53
2022-12-22T02:56:42.313Z,4.53
2022-12-22T03:00:02.698Z,4.57
2022-12-22T03:03:23.167Z,4.13
2022-12-22T03:06:43.441Z,4.35
2022-12-22T03:10:03.846Z,4.00
2022-12-22T03:13:24.370Z,4.35
2022-12-22T03:16:44.747Z,3.63
2022-12-22T03:20:05.007Z,4.13
2022-12-22T03:23:25.868Z,4.30
2022-12-22T03:26:28.800Z,3.67
2022-12-22T03:29:30.385Z,3.25
2022-12-22T03:32:31.924Z,3.28
2022-12-22T03:35:33.524Z,3.17
2022-12-22T03:38:35.265Z,3.00
2022-12-22T03:41:55.469Z,2.78
2022-12-22T03:45:15.927Z,1.95
2022-12-22T03:48:17.476Z,2.45
2022-12-22T03:51:19.002Z,2.17
2022-12-22T03:54:23.139Z,2.10
2022-12-22T03:57:24.688Z,2.20
2022-12-22T04:00:26.244Z,2.13
2022-12-22T04:03:27.949Z,1.75
2022-12-22T04:06:29.661Z,2.00
2022-12-22T04:09:31.214Z,1.95
2022-12-22T04:12:52.184Z,1.75
2022-12-22T04:15:53.685Z,1.90
2022-12-22T04:18:55.466Z,1.80
2022-12-22T04:21:57.235Z,1.95
2022-12-22T04:24:58.768Z,1.83
2022-12-22T04:28:00.379Z,1.92
2022-12-22T04:31:01.961Z,1.88
2022-12-22T04:34:03.570Z,1.75
2022-12-22T04:37:14.938Z,1.90
2022-12-22T04:40:18.933Z,2.10
2022-12-22T04:43:20.475Z,1.90
2022-12-22T04:46:22.078Z,1.65
2022-12-22T04:49:23.664Z,1.70
2022-12-22T04:52:25.315Z,2.13
2022-12-22T04:55:26.890Z,2.30
2022-12-22T04:58:29.481Z,2.15
2022-12-22T05:01:31.070Z,2.30
2022-12-22T05:04:32.723Z,2.63
2022-12-22T05:07:34.318Z,2.03
2022-12-22T05:10:35.934Z,2.40
2022-12-22T05:13:37.833Z,2.38
2022-12-22T05:16:39.437Z,2.75
2022-12-22T05:19:40.985Z,2.88
2022-12-22T05:22:42.897Z,3.00
2022-12-22T05:25:44.413Z,2.63
2022-12-22T05:28:47.717Z,2.92
2022-12-22T05:31:49.272Z,3.70
2022-12-22T05:34:53.581Z,3.28
2022-12-22T05:37:55.163Z,3.60
2022-12-22T05:41:03.203Z,3.30
2022-12-22T05:44:05.817Z,3.53
2022-12-22T05:47:07.423Z,3.85
2022-12-22T05:50:10.553Z,2.90
2022-12-22T05:53:13.177Z,2.90
2022-12-22T05:56:14.742Z,3.28
2022-12-22T05:59:16.314Z,3.30
2022-12-22T06:02:18.032Z,3.15
2022-12-22T06:05:20.123Z,3.20
2022-12-22T06:08:22.140Z,2.78
2022-12-22T06:11:23.687Z,3.00
2022-12-22T06:14:25.323Z,3.53
2022-12-22T06:17:26.901Z,3.30
2022-12-22T06:20:28.554Z,4.20
2022-12-22T06:23:30.162Z,3.53
2022-12-22T06:26:32.153Z,3.30
2022-12-22T06:29:33.676Z,4.28
2022-12-22T06:32:39.060Z,4.70
2022-12-22T06:35:41.616Z,4.68
2022-12-22T06:38:43.164Z,5.40
2022-12-22T06:42:03.546Z,6.47
2022-12-22T06:45:05.494Z,6.00
2022-12-22T06:48:08.578Z,7.10
2022-12-22T06:51:10.118Z,7.75
2022-12-22T06:54:11.710Z,8.82
2022-12-22T06:57:13.373Z,8.70
2022-12-22T07:00:15.210Z,10.23
2022-12-22T07:03:17.325Z,9.35
2022-12-22T07:06:19.297Z,8.80
2022-12-22T07:09:20.845Z,10.95
2022-12-22T07:12:23.697Z,12.25
2022-12-22T07:15:25.218Z,13.52
2022-12-22T07:18:27.442Z,14.02
2022-12-22T07:21:29.276Z,13.40
2022-12-22T07:24:30.889Z,15.65
2022-12-22T07:27:32.955Z,16.45
2022-12-22T07:30:36.647Z,18.60
2022-12-22T07:33:38.989Z,23.55
2022-12-22T07:36:40.581Z,22.73
2022-12-22T07:39:42.175Z,22.65
2022-12-22T07:42:46.693Z,20.88
2022-12-22T07:45:50.088Z,22.55
2022-12-22T07:49:10.577Z,23.30
2022-12-22T07:52:12.191Z,21.00
2022-12-22T07:55:14.120Z,24.42
2022-12-22T07:58:17.172Z,25.50
2022-12-22T08:01:18.737Z,26.48
2022-12-22T08:04:21.826Z,26.52
2022-12-22T08:07:23.396Z,27.60
2022-12-22T08:10:24.972Z,33.92
2022-12-22T08:13:26.694Z,34.17
2022-12-22T08:16:28.755Z,32.88
2022-12-22T08:19:30.456Z,32.22
2022-12-22T08:22:32.709Z,28.80
2022-12-22T08:25:34.718Z,24.13
2022-12-22T08:28:42.005Z,24.70
2022-12-22T08:31:44.423Z,25.63
2022-12-22T08:34:49.160Z,25.10
2022-12-22T08:37:52.266Z,25.23
2022-12-22T08:40:53.940Z,25.70
2022-12-22T08:43:55.481Z,22.83
2022-12-22T08:46:59.298Z,26.73
2022-12-22T08:50:01.130Z,26.58
2022-12-22T08:53:04.237Z,26.00
2022-12-22T08:56:06.024Z,28.42
2022-12-22T08:59:08.121Z,27.27
2022-12-22T09:02:09.844Z,26.63
2022-12-22T09:05:11.485Z,25.10
2022-12-22T09:08:13.056Z,26.23
2022-12-22T09:11:16.878Z,24.30
2022-12-22T09:14:18.496Z,24.88
2022-12-22T09:17:20.104Z,23.20
2022-12-22T09:20:21.689Z,25.00
2022-12-22T09:23:23.300Z,21.83
2022-12-22T09:26:27.390Z,25.20
2022-12-22T09:29:29.586Z,23.73
2022-12-22T09:32:31.195Z,23.00
2022-12-22T09:35:32.771Z,23.88
2022-12-22T09:38:34.963Z,25.30
2022-12-22T09:41:49.640Z,23.55
2022-12-22T09:44:52.251Z,34.65
2022-12-22T09:47:55.035Z,43.65
2022-12-22T09:50:56.725Z,38.97
2022-12-22T09:54:00.514Z,34.58
2022-12-22T09:57:02.130Z,34.85
2022-12-22T10:00:15.237Z,35.00
2022-12-22T10:03:29.940Z,35.08
2022-12-22T10:06:58.873Z,30.13
2022-12-22T10:10:07.839Z,28.85
2022-12-22T10:13:18.121Z,30.50
2022-12-22T10:16:26.210Z,30.27
2022-12-22T10:19:28.245Z,34.33
2022-12-22T10:22:37.483Z,33.85
2022-12-22T10:26:25.995Z,29.75
2022-12-22T10:29:16.644Z,27.83
2022-12-22T10:32:22.089Z,26.50
2022-12-22T10:35:23.913Z,27.52
2022-12-22T10:38:33.066Z,26.15
2022-12-22T10:41:42.783Z,28.33
2022-12-22T10:44:47.301Z,24.98
2022-12-22T10:47:51.612Z,45.80
2022-12-22T10:50:53.672Z,24.95
2022-12-22T10:53:56.453Z,86.20
2022-12-22T10:57:14.826Z,27.17
2022-12-22T11:00:30.926Z,25.75
2022-12-22T11:03:32.836Z,25.08
2022-12-22T11:06:34.610Z,26.77
2022-12-22T11:09:36.260Z,27.67
2022-12-22T11:12:54.610Z,26.13
2022-12-22T11:16:03.224Z,24.75
2022-12-22T11:19:18.785Z,26.80
2022-12-22T11:22:48.238Z,24.83
2022-12-22T11:26:08.635Z,24.20
2022-12-22T11:29:28.222Z,26.33
2022-12-22T11:32:35.944Z,24.02
2022-12-22T11:35:51.107Z,23.23
2022-12-22T11:39:11.991Z,22.05
2022-12-22T11:45:57.059Z,23.42
2022-12-22T11:49:22.247Z,24.98
2022-12-22T11:52:38.797Z,23.15
2022-12-22T11:56:08.145Z,19.52
2022-12-22T11:59:15.897Z,19.67
2022-12-22T12:02:38.674Z,18.85
2022-12-22T12:05:57.912Z,18.92
2022-12-22T12:09:36.277Z,19.98
2022-12-22T12:12:51.035Z,20.13
2022-12-22T12:16:01.770Z,19.88
2022-12-22T12:22:46.156Z,19.42
2022-12-22T12:26:01.282Z,19.90
2022-12-22T12:29:24.069Z,17.80
2022-12-22T12:32:31.453Z,16.38
2022-12-22T12:35:52.620Z,17.35
2022-12-22T12:39:07.549Z,16.80
2022-12-22T12:42:32.309Z,16.33
2022-12-22T12:45:42.577Z,16.00
2022-12-22T12:48:44.160Z,16.05
2022-12-22T12:51:49.349Z,17.00
2022-12-22T12:54:51.983Z,16.75
2022-12-22T12:57:53.693Z,17.50
2022-12-22T13:00:58.803Z,16.52
2022-12-22T13:04:04.153Z,18.23
2022-12-22T13:07:06.495Z,18.50
2022-12-22T13:10:18.821Z,18.88
2022-12-22T13:13:23.661Z,18.67
2022-12-22T13:16:27.394Z,22.38
2022-12-22T13:19:30.715Z,23.60
2022-12-22T13:22:33.231Z,22.70
2022-12-22T13:25:49.315Z,22.70
2022-12-22T13:28:59.494Z,22.08
2022-12-22T13:32:15.680Z,23.48
2022-12-22T13:35:32.513Z,22.90
2022-12-22T13:38:37.374Z,23.63
2022-12-22T13:41:41.154Z,22.08
2022-12-22T13:44:42.922Z,21.73
2022-12-22T13:47:46.504Z,21.88
2022-12-22T13:51:01.128Z,21.67
2022-12-22T13:54:26.616Z,21.48
2022-12-22T13:57:28.830Z,22.02
2022-12-22T14:00:30.496Z,20.85
2022-12-22T14:03:59.082Z,20.17
2022-12-22T14:06:54.697Z,16.55
2022-12-22T14:09:57.130Z,16.45
2022-12-22T14:13:00.455Z,17.15
2022-12-22T14:16:05.117Z,16.55
2022-12-22T14:19:06.795Z,15.85
2022-12-22T14:22:16.161Z,14.50
2022-12-22T14:25:21.800Z,14.90
2022-12-22T14:28:31.531Z,13.88
2022-12-22T14:31:33.180Z,13.52
2022-12-22T14:34:35.242Z,13.93
2022-12-22T14:37:36.819Z,13.80
2022-12-22T14:40:43.492Z,12.27
2022-12-22T14:43:49.096Z,13.13
2022-12-22T14:47:11.738Z,17.10
2022-12-22T14:50:29.026Z,14.52
2022-12-22T14:53:44.633Z,13.60
2022-12-22T14:56:51.513Z,12.70
2022-12-22T15:00:08.267Z,13.43
2022-12-22T15:03:25.149Z,13.48
2022-12-22T15:06:26.894Z,14.93
2022-12-22T15:10:12.691Z,12.88
2022-12-22T15:12:54.661Z,14.55
2022-12-22T15:15:56.751Z,13.95
2022-12-22T15:18:58.438Z,14.77
2022-12-22T15:22:00.438Z,14.68
2022-12-22T15:25:02.061Z,15.23
2022-12-22T15:28:03.704Z,15.32
2022-12-22T15:31:12.873Z,17.10
2022-12-22T15:34:25.748Z,16.40
2022-12-22T15:37:27.347Z,16.95
2022-12-22T15:40:29.435Z,17.05
2022-12-22T15:43:56.629Z,17.35
2022-12-22T15:46:57.011Z,18.48
2022-12-22T15:49:59.750Z,18.42
2022-12-22T15:53:03.407Z,20.30
2022-12-22T15:56:05.488Z,19.77
2022-12-22T15:59:13.560Z,19.08
2022-12-22T16:02:15.485Z,20.40
2022-12-22T16:05:18.348Z,17.73
2022-12-22T16:08:32.028Z,17.40
2022-12-22T16:11:33.660Z,17.00
2022-12-22T16:14:42.313Z,15.65
2022-12-22T16:17:46.844Z,20.38
2022-12-22T16:20:50.243Z,19.27
2022-12-22T16:23:51.946Z,18.27
2022-12-22T16:26:56.817Z,18.60
2022-12-22T16:29:58.702Z,16.67
2022-12-22T16:33:01.210Z,17.15
2022-12-22T16:36:03.284Z,16.33
2022-12-22T16:39:04.830Z,17.60
2022-12-22T16:42:12.594Z,16.55
2022-12-22T16:45:23.897Z,20.00
2022-12-22T16:48:34.376Z,17.58
2022-12-22T16:51:42.124Z,19.17
2022-12-22T16:54:45.685Z,16.20
2022-12-22T16:57:51.395Z,18.65
2022-12-22T17:00:53.019Z,18.45
2022-12-22T17:03:55.670Z,19.65
2022-12-22T17:06:59.623Z,22.38
2022-12-22T17:10:02.104Z,16.83
2022-12-22T17:13:04.039Z,17.83
2022-12-22T17:16:05.878Z,15.55
2022-12-22T17:19:10.542Z,12.25
2022-12-22T17:22:31.438Z,12.65
2022-12-22T17:25:33.005Z,13.63
2022-12-22T17:28:36.683Z,10.80
2022-12-22T17:31:38.257Z,9.70
2022-12-22T17:34:40.475Z,10.00
2022-12-22T17:37:43.882Z,10.77
2022-12-22T17:40:47.087Z,11.65
2022-12-22T17:43:48.711Z,12.80
2022-12-22T17:46:50.637Z,12.60
2022-12-22T17:49:52.272Z,13.98
2022-12-22T17:52:55.320Z,14.48
2022-12-22T17:56:12.441Z,13.82
2022-12-22T17:59:14.051Z,15.20
2022-12-22T18:02:21.144Z,14.45
2022-12-22T18:05:26.968Z,14.35
2022-12-22T18:08:31.153Z,15.13
2022-12-22T18:11:33.532Z,14.75
2022-12-22T18:14:35.110Z,15.07
2022-12-22T18:17:37.243Z,14.45
2022-12-22T18:20:38.936Z,13.13
2022-12-22T18:23:47.738Z,12.00
2022-12-22T18:26:51.358Z,11.70
2022-12-22T18:29:52.931Z,13.30
2022-12-22T18:32:56.242Z,12.70
2022-12-22T18:35:59.018Z,11.02
2022-12-22T18:39:02.231Z,11.70
2022-12-22T18:42:17.127Z,9.68
2022-12-22T18:45:20.773Z,10.27
2022-12-22T18:48:22.406Z,9.70
2022-12-22T18:51:25.549Z,9.90
2022-12-22T18:54:32.417Z,9.23
2022-12-22T18:57:34.044Z,8.65
2022-12-22T19:00:37.072Z,9.32
2022-12-22T19:03:38.660Z,9.32
2022-12-22T19:06:40.204Z,8.43
2022-12-22T19:09:42.600Z,8.20
2022-12-22T19:12:47.530Z,8.10
2022-12-22T19:15:49.988Z,8.07
2022-12-22T19:18:51.605Z,7.55
2022-12-22T19:21:54.118Z,7.30
2022-12-22T19:24:57.496Z,7.32
2022-12-22T19:28:12.879Z,6.68
2022-12-22T19:31:39.045Z,6.70
2022-12-22T19:34:40.851Z,7.70
2022-12-22T19:37:42.490Z,7.30
2022-12-22T19:40:44.087Z,8.15
2022-12-22T19:43:45.680Z,7.95
2022-12-22T19:46:48.124Z,8.13
2022-12-22T19:49:49.789Z,8.35
2022-12-22T19:52:52.648Z,8.68
2022-12-22T19:55:56.738Z,9.38
2022-12-22T19:59:00.500Z,9.02
2022-12-22T20:02:02.404Z,9.80
2022-12-22T20:05:08.838Z,8.88
2022-12-22T20:08:13.441Z,9.40
2022-12-22T20:11:19.415Z,10.43
2022-12-22T20:14:21.063Z,9.70
2022-12-22T20:17:22.719Z,9.13
2022-12-22T20:20:30.003Z,10.68
2022-12-22T20:23:35.792Z,10.02
2022-12-22T20:26:37.335Z,9.70
2022-12-22T20:29:38.902Z,9.07
2022-12-22T20:32:40.493Z,9.90
2022-12-22T20:35:43.205Z,9.65
2022-12-22T20:38:45.493Z,8.27
2022-12-22T20:41:53.002Z,8.75
2022-12-22T20:45:04.141Z,9.40
2022-12-22T20:48:06.201Z,8.60
2022-12-22T20:51:13.005Z,8.95
2022-12-22T20:54:15.532Z,9.35
2022-12-22T20:57:17.194Z,9.10
2022-12-22T21:00:26.527Z,8.68
2022-12-22T21:03:28.270Z,8.77
2022-12-22T21:06:35.453Z,9.73
2022-12-22T21:09:39.122Z,9.00
2022-12-22T21:12:40.829Z,8.93
2022-12-22T21:15:44.338Z,8.40
2022-12-22T21:18:46.331Z,8.43
2022-12-22T21:21:47.910Z,8.82
2022-12-22T21:24:49.535Z,9.52
2022-12-22T21:27:52.539Z,8.70
2022-12-22T21:30:54.316Z,9.23
2022-12-22T21:33:56.000Z,9.80
2022-12-22T21:37:01.321Z,10.40
2022-12-22T21:40:03.483Z,8.38
2022-12-22T21:43:05.062Z,9.93
2022-12-22T21:46:06.705Z,9.27
2022-12-22T21:49:22.955Z,8.95
2022-12-22T21:52:24.486Z,9.77
2022-12-22T21:55:30.851Z,9.10
2022-12-22T21:58:32.416Z,8.90
2022-12-22T22:01:34.600Z,10.50
2022-12-22T22:04:36.189Z,9.60
2022-12-22T22:07:37.704Z,8.75
2022-12-22T22:10:43.646Z,9.38
2022-12-22T22:13:45.631Z,8.70
2022-12-22T22:16:47.490Z,8.02
2022-12-22T22:19:49.084Z,10.15
2022-12-22T22:22:51.994Z,8.35
2022-12-22T22:25:58.181Z,8.40
2022-12-22T22:28:59.736Z,8.63
2022-12-22T22:32:01.756Z,7.32
2022-12-22T22:35:04.112Z,8.95
2022-12-22T22:38:05.669Z,7.50
2022-12-22T22:41:07.214Z,7.07
2022-12-22T22:44:08.961Z,7.18
2022-12-22T22:47:10.770Z,7.47
2022-12-22T22:50:12.472Z,7.70
2022-12-22T22:53:14.031Z,7.15
2022-12-22T22:56:15.786Z,6.55
2022-12-22T22:59:17.503Z,7.32
2022-12-22T23:02:19.384Z,6.63
2022-12-22T23:05:23.247Z,7.25
2022-12-22T23:08:24.957Z,6.68
2022-12-22T23:11:26.758Z,6.35
2022-12-22T23:14:28.704Z,7.53
2022-12-22T23:17:30.324Z,6.90
2022-12-22T23:20:31.963Z,7.30
2022-12-22T23:23:34.375Z,7.05
2022-12-22T23:26:36.176Z,7.88
2022-12-22T23:29:37.834Z,7.57
2022-12-22T23:32:39.435Z,6.88
2022-12-22T23:35:42.363Z,6.85
2022-12-22T23:38:44.221Z,7.70
2022-12-22T23:41:45.886Z,8.38
2022-12-22T23:44:48.333Z,7.93
2022-12-22T23:47:49.848Z,6.80
2022-12-22T23:50:51.571Z,7.72
2022-12-22T23:53:54.394Z,7.93
2022-12-22T23:56:55.991Z,8.00
2022-12-22T23:59:57.651Z,7.38
